Time,TemperatureF,DewpointF,PressureIn,WindDirection,WindDirectionDegrees,WindSpeedMPH,WindSpeedGustMPH,Humidity,HourlyPrecipIn,Conditions,Clouds,dailyrainin,SoftwareType,DateUTC
2013-01-24 00:01:00,10.9,-3.3,30.17,WNW,293,3.0,3.0,52,0.00,,,0.00,Wunderground v.1.15,2013-01-24 05:01:00,
2013-01-24 00:05:00,10.9,-3.3,30.17,WSW,248,3.0,3.0,52,0.00,,,0.00,Wunderground v.1.15,2013-01-24 05:05:00,
2013-01-24 00:15:00,10.6,-3.6,30.17,NW,319,2.0,3.0,52,0.00,,,0.00,Wunderground v.1.15,2013-01-24 05:15:00,
2013-01-24 08:00:00,8.5,-0.9,30.16,NW,314,9.0,9.0,65,0.00,,,0.00,Wunderground v.1.15,2013-01-24 13:00:00,
2013-01-24 08:05:00,8.7,-1.0,30.16,NW,319,8.0,8.0,64,0.00,,,0.00,Wunderground v.1.15,2013-01-24 13:05:00,
2013-01-24 08:10:00,8.8,-0.9,30.16,NW,316,8.0,8.0,64,0.00,,,0.00,Wunderground v.1.15,2013-01-24 13:10:00,
2013-01-24 08:15:00,9.0,-0.7,30.16,NW,312,8.0,9.0,64,0.00,,,0.00,Wunderground v.1.15,2013-01-24 13:15:00,
2013-01-24 08:20:00,9.0,-1.1,30.17,NNW,340,8.0,8.0,63,0.00,,,0.00,Wunderground v.1.15,2013-01-24 13:20:00,
2013-01-24 08:30:00,9.4,-1.7,30.17,NW,304,9.0,9.0,60,0.00,,,0.00,Wunderground v.1.15,2013-01-24 13:30:00,
2013-01-24 08:35:00,9.8,-1.0,30.16,NW,309,10.0,10.0,61,0.00,,,0.00,Wunderground v.1.15,2013-01-24 13:35:00,
2013-01-24 08:40:00,10.1,-0.7,30.16,North,355,9.0,9.0,61,0.00,,,0.00,Wunderground v.1.15,2013-01-24 13:40:00,
2013-01-24 08:45:00,10.4,-1.5,30.16,NW,315,9.0,9.0,58,0.00,,,0.00,Wunderground v.1.15,2013-01-24 13:45:00,
2013-01-24 08:50:00,10.6,-0.6,30.16,NW,307,10.0,12.0,60,0.00,,,0.00,Wunderground v.1.15,2013-01-24 13:50:00,
2013-01-24 08:55:00,10.6,-2.8,30.16,NNW,332,11.0,12.0,54,0.00,,,0.00,Wunderground v.1.15,2013-01-24 13:55:00,
2013-01-24 09:00:00,10.9,-1.4,30.16,WNW,287,13.0,13.0,57,0.00,,,0.00,Wunderground v.1.15,2013-01-24 14:00:00,
2013-01-24 09:06:00,11.1,-1.9,30.16,West,281,13.0,13.0,55,0.00,,,0.00,Wunderground v.1.15,2013-01-24 14:06:00,
2013-01-24 09:10:00,11.3,-1.8,30.15,NW,318,12.0,13.0,55,0.00,,,0.00,Wunderground v.1.15,2013-01-24 14:10:00,
2013-01-24 09:15:00,11.3,-2.1,30.15,NW,321,13.0,16.0,54,0.00,,,0.00,Wunderground v.1.15,2013-01-24 14:15:00,
2013-01-24 09:20:00,11.5,-2.0,30.15,WNW,290,14.0,14.0,54,0.00,,,0.00,Wunderground v.1.15,2013-01-24 14:20:00,
2013-01-24 09:25:00,11.7,-1.8,30.15,NW,309,14.0,14.0,54,0.00,,,0.00,Wunderground v.1.15,2013-01-24 14:25:00,
2013-01-24 09:30:00,11.7,-1.8,30.15,NW,316,14.0,14.0,54,0.00,,,0.00,Wunderground v.1.15,2013-01-24 14:30:00,
2013-01-24 09:35:00,11.9,-1.6,30.15,NNW,330,12.0,14.0,54,0.00,,,0.00,Wunderground v.1.15,2013-01-24 14:35:00,
2013-01-24 09:41:00,12.0,-1.5,30.15,WNW,294,11.0,14.0,54,0.00,,,0.00,Wunderground v.1.15,2013-01-24 14:41:00,
2013-01-24 09:46:00,12.1,-2.2,30.16,WNW,303,12.0,14.0,52,0.00,,,0.00,Wunderground v.1.15,2013-01-24 14:46:00,
2013-01-24 09:55:00,12.4,-2.3,30.15,NW,311,16.0,23.0,51,0.00,,,0.00,Wunderground v.1.15,2013-01-24 14:55:00,
2013-01-24 10:00:00,12.7,-2.5,30.15,NW,314,15.0,15.0,50,0.00,,,0.00,Wunderground v.1.15,2013-01-24 15:00:00,
2013-01-24 10:05:00,13.1,-1.3,30.15,NW,314,12.0,15.0,52,0.00,,,0.00,Wunderground v.1.15,2013-01-24 15:05:00,
2013-01-24 10:10:00,13.3,-2.8,30.15,NW,312,11.0,11.0,48,0.00,,,0.00,Wunderground v.1.15,2013-01-24 15:10:00,
2013-01-24 10:15:00,13.4,-3.1,30.15,NNW,332,14.0,17.0,47,0.00,,,0.00,Wunderground v.1.15,2013-01-24 15:15:00,
2013-01-24 10:20:00,13.5,-3.0,30.15,WNW,302,17.0,19.0,47,0.00,,,0.00,Wunderground v.1.15,2013-01-24 15:20:00,
2013-01-24 10:25:00,13.6,-2.5,30.15,NNW,329,16.0,19.0,48,0.00,,,0.00,Wunderground v.1.15,2013-01-24 15:25:00,
2013-01-24 10:30:00,13.7,-2.0,30.15,NW,319,15.0,22.0,49,0.00,,,0.00,Wunderground v.1.15,2013-01-24 15:30:00,
2013-01-24 10:35:00,13.6,-3.4,30.16,NW,305,16.0,24.0,46,0.00,,,0.00,Wunderground v.1.15,2013-01-24 15:35:00,
2013-01-24 10:40:00,13.8,-3.2,30.16,NW,314,17.0,17.0,46,0.00,,,0.00,Wunderground v.1.15,2013-01-24 15:40:00,
2013-01-24 10:45:00,14.4,-1.7,30.15,NW,323,13.0,17.0,48,0.00,,,0.00,Wunderground v.1.15,2013-01-24 15:45:00,
2013-01-24 10:50:00,14.1,-2.9,30.15,WNW,301,12.0,14.0,46,0.00,,,0.00,Wunderground v.1.15,2013-01-24 15:50:00,
2013-01-24 10:55:00,14.1,-3.4,30.15,NW,307,15.0,15.0,45,0.00,,,0.00,Wunderground v.1.15,2013-01-24 15:55:00,
2013-01-24 11:00:00,14.5,-3.0,30.15,NW,319,14.0,14.0,45,0.00,,,0.00,Wunderground v.1.15,2013-01-24 16:00:00,
2013-01-24 11:05:00,14.9,-1.3,30.15,NW,307,10.0,14.0,48,0.00,,,0.00,Wunderground v.1.15,2013-01-24 16:05:00,
2013-01-24 11:10:00,14.6,-2.5,30.15,WNW,295,11.0,13.0,46,0.00,,,0.00,Wunderground v.1.15,2013-01-24 16:10:00,
2013-01-24 11:15:00,14.6,-3.4,30.15,WNW,290,14.0,14.0,44,0.00,,,0.00,Wunderground v.1.15,2013-01-24 16:15:00,
2013-01-24 11:20:00,14.9,-1.7,30.15,WNW,295,13.0,18.0,47,0.00,,,0.00,Wunderground v.1.15,2013-01-24 16:20:00,
2013-01-24 11:30:00,14.8,-2.7,30.14,NW,309,14.0,14.0,45,0.00,,,0.00,Wunderground v.1.15,2013-01-24 16:30:00,
2013-01-24 11:35:00,15.1,-2.5,30.14,NW,312,12.0,16.0,45,0.00,,,0.00,Wunderground v.1.15,2013-01-24 16:35:00,
2013-01-24 11:40:00,15.1,-3.4,30.14,NW,314,14.0,14.0,43,0.00,,,0.00,Wunderground v.1.15,2013-01-24 16:40:00,
2013-01-24 11:45:00,15.1,-3.4,30.13,NNE,14,15.0,15.0,43,0.00,,,0.00,Wunderground v.1.15,2013-01-24 16:45:00,
2013-01-24 11:51:00,15.1,-3.4,30.13,NW,319,15.0,17.0,43,0.00,,,0.00,Wunderground v.1.15,2013-01-24 16:51:00,
2013-01-24 12:01:00,15.3,-3.7,30.13,WNW,303,16.0,17.0,42,0.00,,,0.00,Wunderground v.1.15,2013-01-24 17:01:00,
2013-01-24 12:06:00,15.6,-3.0,30.13,NW,326,15.0,17.0,43,0.00,,,0.00,Wunderground v.1.15,2013-01-24 17:06:00,
2013-01-24 12:15:00,16.1,-1.5,30.13,NW,314,14.0,14.0,45,0.00,,,0.00,Wunderground v.1.15,2013-01-24 17:15:00,
2013-01-24 12:20:00,16.3,-2.3,30.13,NW,304,13.0,15.0,43,0.00,,,0.00,Wunderground v.1.15,2013-01-24 17:20:00,
2013-01-24 12:25:00,16.0,-4.1,30.13,WNW,301,14.0,15.0,40,0.00,,,0.00,Wunderground v.1.15,2013-01-24 17:25:00,
2013-01-24 12:30:00,16.2,-3.4,30.12,NW,312,16.0,18.0,41,0.00,,,0.00,Wunderground v.1.15,2013-01-24 17:30:00,
2013-01-24 12:35:00,16.6,-3.1,30.13,NW,323,15.0,18.0,41,0.00,,,0.00,Wunderground v.1.15,2013-01-24 17:35:00,
2013-01-24 12:40:00,16.7,-3.5,30.13,WNW,295,14.0,16.0,40,0.00,,,0.00,Wunderground v.1.15,2013-01-24 17:40:00,
2013-01-24 12:45:00,16.8,-3.4,30.13,NW,314,15.0,16.0,40,0.00,,,0.00,Wunderground v.1.15,2013-01-24 17:45:00,
2013-01-24 12:50:00,17.1,-3.1,30.13,NW,320,13.0,13.0,40,0.00,,,0.00,Wunderground v.1.15,2013-01-24 17:50:00,
2013-01-24 12:55:00,17.2,-3.6,30.12,WNW,290,13.0,18.0,39,0.00,,,0.00,Wunderground v.1.15,2013-01-24 17:55:00,
2013-01-24 13:00:00,17.0,-4.3,30.13,NW,311,16.0,16.0,38,0.00,,,0.00,Wunderground v.1.15,2013-01-24 18:00:00,
2013-01-24 13:05:00,17.3,-4.0,30.13,NW,318,16.0,16.0,38,0.00,,,0.00,Wunderground v.1.15,2013-01-24 18:05:00,
2013-01-24 13:15:00,17.9,-3.5,30.13,WNW,284,14.0,19.0,38,0.00,,,0.00,Wunderground v.1.15,2013-01-24 18:15:00,
2013-01-24 13:20:00,17.9,-2.9,30.13,WNW,298,15.0,16.0,39,0.00,,,0.00,Wunderground v.1.15,2013-01-24 18:20:00,
2013-01-24 13:26:00,18.1,-2.2,30.13,WNW,293,14.0,16.0,40,0.00,,,0.00,Wunderground v.1.15,2013-01-24 18:26:00,
2013-01-24 13:31:00,18.5,-2.4,30.13,NW,305,12.0,12.0,39,0.00,,,0.00,Wunderground v.1.15,2013-01-24 18:31:00,
2013-01-24 13:36:00,18.6,-4.0,30.13,NW,309,12.0,15.0,36,0.00,,,0.00,Wunderground v.1.15,2013-01-24 18:36:00,
2013-01-24 13:46:00,19.3,-2.2,30.13,WNW,294,13.0,14.0,38,0.00,,,0.00,Wunderground v.1.15,2013-01-24 18:46:00,
2013-01-24 13:55:00,19.1,-4.1,30.13,NW,309,17.0,22.0,35,0.00,,,0.00,Wunderground v.1.15,2013-01-24 18:55:00,
2013-01-24 14:00:00,19.4,-3.8,30.13,NW,312,16.0,16.0,35,0.00,,,0.00,Wunderground v.1.15,2013-01-24 19:00:00,
2013-01-24 14:05:00,19.4,-3.8,30.13,NW,307,16.0,16.0,35,0.00,,,0.00,Wunderground v.1.15,2013-01-24 19:05:00,
2013-01-24 14:10:00,19.4,-5.1,30.13,NW,325,16.0,16.0,33,0.00,,,0.00,Wunderground v.1.15,2013-01-24 19:10:00,
2013-01-24 14:15:00,19.6,-3.7,30.13,NW,320,14.0,16.0,35,0.00,,,0.00,Wunderground v.1.15,2013-01-24 19:15:00,
2013-01-24 14:26:00,19.9,-2.8,30.14,NW,305,12.0,12.0,36,0.00,,,0.00,Wunderground v.1.15,2013-01-24 19:26:00,
2013-01-24 14:31:00,21.9,-2.9,30.14,WNW,301,11.0,19.0,33,0.00,,,0.00,Wunderground v.1.15,2013-01-24 19:31:00,
2013-01-24 14:40:00,21.5,-4.5,30.14,West,273,9.0,9.0,31,0.00,,,0.00,Wunderground v.1.15,2013-01-24 19:40:00,
2013-01-24 14:45:00,21.6,-4.4,30.14,NW,310,10.0,10.0,31,0.00,,,0.00,Wunderground v.1.15,2013-01-24 19:45:00,
2013-01-24 14:50:00,21.6,-4.4,30.15,West,281,9.0,10.0,31,0.00,,,0.00,Wunderground v.1.15,2013-01-24 19:50:00,
2013-01-24 15:00:00,22.0,-2.8,30.15,North,351,8.0,8.0,33,0.00,,,0.00,Wunderground v.1.15,2013-01-24 20:00:00,
2013-01-24 15:05:00,22.0,-4.1,30.16,WNW,300,6.0,8.0,31,0.00,,,0.00,Wunderground v.1.15,2013-01-24 20:05:00,
2013-01-24 15:10:00,21.7,-5.0,30.15,NW,315,7.0,11.0,30,0.00,,,0.00,Wunderground v.1.15,2013-01-24 20:10:00,
2013-01-24 15:15:00,21.8,-2.9,30.16,WNW,299,8.0,11.0,33,0.00,,,0.00,Wunderground v.1.15,2013-01-24 20:15:00,
2013-01-24 15:25:00,21.9,-4.2,30.15,NNW,334,6.0,10.0,31,0.00,,,0.00,Wunderground v.1.15,2013-01-24 20:25:00,
2013-01-24 15:30:00,21.6,-4.4,30.15,NW,311,9.0,9.0,31,0.00,,,0.00,Wunderground v.1.15,2013-01-24 20:30:00,
2013-01-24 15:40:00,21.6,-4.4,30.15,WNW,288,8.0,11.0,31,0.00,,,0.00,Wunderground v.1.15,2013-01-24 20:40:00,
2013-01-24 15:50:00,21.9,-3.5,30.15,NNW,328,6.0,11.0,32,0.00,,,0.00,Wunderground v.1.15,2013-01-24 20:50:00,
2013-01-24 15:55:00,22.0,-2.8,30.16,WNW,302,6.0,11.0,33,0.00,,,0.00,Wunderground v.1.15,2013-01-24 20:55:00,
2013-01-24 16:00:00,21.8,-2.9,30.16,WNW,284,8.0,8.0,33,0.00,,,0.00,Wunderground v.1.15,2013-01-24 21:00:00,
2013-01-24 16:05:00,21.8,-3.6,30.16,NW,316,9.0,9.0,32,0.00,,,0.00,Wunderground v.1.15,2013-01-24 21:05:00,
2013-01-24 16:11:00,21.8,-2.9,30.16,NNW,330,8.0,8.0,33,0.00,,,0.00,Wunderground v.1.15,2013-01-24 21:11:00,
2013-01-24 16:20:00,21.6,-3.1,30.16,West,271,8.0,8.0,33,0.00,,,0.00,Wunderground v.1.15,2013-01-24 21:20:00,
2013-01-24 16:25:00,21.5,-3.2,30.16,WNW,283,8.0,11.0,33,0.00,,,0.00,Wunderground v.1.15,2013-01-24 21:25:00,
2013-01-24 16:30:00,21.4,-2.7,30.16,NW,312,8.0,14.0,34,0.00,,,0.00,Wunderground v.1.15,2013-01-24 21:30:00,
2013-01-24 16:35:00,21.2,-2.9,30.17,West,271,8.0,14.0,34,0.00,,,0.00,Wunderground v.1.15,2013-01-24 21:35:00,
2013-01-24 16:45:00,20.7,-2.7,30.18,West,274,10.0,10.0,35,0.00,,,0.00,Wunderground v.1.15,2013-01-24 21:45:00,
2013-01-24 16:50:00,20.5,-2.9,30.18,NNW,328,8.0,8.0,35,0.00,,,0.00,Wunderground v.1.15,2013-01-24 21:50:00,
2013-01-24 16:55:00,20.4,-3.6,30.18,West,262,8.0,14.0,34,0.00,,,0.00,Wunderground v.1.15,2013-01-24 21:55:00,
2013-01-24 17:00:00,20.3,-4.3,30.18,NW,321,10.0,10.0,33,0.00,,,0.00,Wunderground v.1.15,2013-01-24 22:00:00,
2013-01-24 17:05:00,20.2,-4.4,30.18,NW,304,11.0,11.0,33,0.00,,,0.00,Wunderground v.1.15,2013-01-24 22:05:00,
2013-01-24 17:10:00,20.1,-4.5,30.19,NNW,337,9.0,9.0,33,0.00,,,0.00,Wunderground v.1.15,2013-01-24 22:10:00,
2013-01-24 17:15:00,19.9,-4.6,30.19,WNW,299,6.0,9.0,33,0.00,,,0.00,Wunderground v.1.15,2013-01-24 22:15:00,
2013-01-24 17:20:00,19.9,-5.3,30.20,NW,312,8.0,8.0,32,0.00,,,0.00,Wunderground v.1.15,2013-01-24 22:20:00,
2013-01-24 17:25:00,19.8,-4.7,30.20,West,278,8.0,8.0,33,0.00,,,0.00,Wunderground v.1.15,2013-01-24 22:25:00,
2013-01-24 17:30:00,19.8,-5.4,30.20,WNW,299,8.0,11.0,32,0.00,,,0.00,Wunderground v.1.15,2013-01-24 22:30:00,
2013-01-24 17:41:00,19.7,-5.4,30.20,NNW,329,10.0,18.0,32,0.00,,,0.00,Wunderground v.1.15,2013-01-24 22:41:00,
2013-01-24 17:50:00,19.6,-6.2,30.21,West,275,11.0,11.0,31,0.00,,,0.00,Wunderground v.1.15,2013-01-24 22:50:00,
2013-01-24 17:55:00,19.4,-6.4,30.21,West,267,7.0,11.0,31,0.00,,,0.00,Wunderground v.1.15,2013-01-24 22:55:00,
2013-01-24 18:00:00,19.3,-5.8,30.21,North,355,9.0,9.0,32,0.00,,,0.00,Wunderground v.1.15,2013-01-24 23:00:00,
2013-01-24 18:05:00,19.2,-5.9,30.21,NW,308,9.0,12.0,32,0.00,,,0.00,Wunderground v.1.15,2013-01-24 23:05:00,
2013-01-24 18:10:00,19.2,-5.9,30.21,WNW,290,8.0,8.0,32,0.00,,,0.00,Wunderground v.1.15,2013-01-24 23:10:00,
2013-01-24 18:15:00,19.2,-5.9,30.21,WNW,297,9.0,9.0,32,0.00,,,0.00,Wunderground v.1.15,2013-01-24 23:15:00,
2013-01-24 18:20:00,19.2,-6.5,30.22,WNW,294,9.0,9.0,31,0.00,,,0.00,Wunderground v.1.15,2013-01-24 23:20:00,
2013-01-24 18:25:00,19.0,-5.4,30.22,South,171,8.0,9.0,33,0.00,,,0.00,Wunderground v.1.15,2013-01-24 23:25:00,
2013-01-24 18:30:00,18.9,-5.5,30.22,WNW,284,6.0,10.0,33,0.00,,,0.00,Wunderground v.1.15,2013-01-24 23:30:00,
2013-01-24 18:35:00,18.9,-5.5,30.22,West,259,8.0,17.0,33,0.00,,,0.00,Wunderground v.1.15,2013-01-24 23:35:00,
2013-01-24 18:40:00,19.0,-5.4,30.22,SE,134,11.0,11.0,33,0.00,,,0.00,Wunderground v.1.15,2013-01-24 23:40:00,
2013-01-24 18:45:00,18.9,-6.2,30.23,WNW,294,10.0,11.0,32,0.00,,,0.00,Wunderground v.1.15,2013-01-24 23:45:00,
2013-01-24 18:50:00,18.8,-5.6,30.23,WNW,286,8.0,8.0,33,0.00,,,0.00,Wunderground v.1.15,2013-01-24 23:50:00,
2013-01-24 19:00:00,18.6,-5.2,30.23,West,270,7.0,16.0,34,0.00,,,0.00,Wunderground v.1.15,2013-01-25 00:00:00,
2013-01-24 19:05:00,18.6,-5.2,30.23,WNW,296,8.0,16.0,34,0.00,,,0.00,Wunderground v.1.15,2013-01-25 00:05:00,
2013-01-24 19:10:00,18.5,-5.9,30.23,West,274,9.0,11.0,33,0.00,,,0.00,Wunderground v.1.15,2013-01-25 00:10:00,
2013-01-24 19:20:00,18.6,-5.8,30.23,NW,308,9.0,14.0,33,0.00,,,0.00,Wunderground v.1.15,2013-01-25 00:20:00,
2013-01-24 19:25:00,18.5,-5.9,30.23,West,263,9.0,14.0,33,0.00,,,0.00,Wunderground v.1.15,2013-01-25 00:25:00,
2013-01-24 19:30:00,18.4,-6.0,30.23,NNW,330,8.0,8.0,33,0.00,,,0.00,Wunderground v.1.15,2013-01-25 00:30:00,
2013-01-24 19:35:00,18.3,-6.1,30.24,WNW,282,9.0,9.0,33,0.00,,,0.00,Wunderground v.1.15,2013-01-25 00:35:00,
2013-01-24 19:41:00,18.2,-5.5,30.24,West,277,9.0,10.0,34,0.00,,,0.00,Wunderground v.1.15,2013-01-25 00:41:00,
2013-01-24 19:46:00,18.1,-5.6,30.24,NW,306,7.0,10.0,34,0.00,,,0.00,Wunderground v.1.15,2013-01-25 00:46:00,
2013-01-24 19:56:00,18.0,-5.1,30.24,West,270,7.0,15.0,35,0.00,,,0.00,Wunderground v.1.15,2013-01-25 00:56:00,
2013-01-24 20:05:00,17.9,-5.8,30.24,SW,218,8.0,8.0,34,0.00,,,0.00,Wunderground v.1.15,2013-01-25 01:05:00,
2013-01-24 20:11:00,17.8,-5.9,30.25,NW,312,7.0,11.0,34,0.00,,,0.00,Wunderground v.1.15,2013-01-25 01:11:00,
2013-01-24 20:20:00,17.8,-5.9,30.25,SSE,162,8.0,8.0,34,0.00,,,0.00,Wunderground v.1.15,2013-01-25 01:20:00,
2013-01-24 20:25:00,17.7,-6.0,30.25,WNW,287,8.0,9.0,34,0.00,,,0.00,Wunderground v.1.15,2013-01-25 01:25:00,
2013-01-24 20:30:00,17.6,-5.5,30.25,WNW,297,7.0,10.0,35,0.00,,,0.00,Wunderground v.1.15,2013-01-25 01:30:00,
2013-01-24 20:35:00,17.5,-5.5,30.25,West,277,8.0,10.0,35,0.00,,,0.00,Wunderground v.1.15,2013-01-25 01:35:00,
2013-01-24 20:40:00,17.4,-5.6,30.25,West,276,9.0,9.0,35,0.00,,,0.00,Wunderground v.1.15,2013-01-25 01:40:00,
2013-01-24 20:45:00,17.3,-5.1,30.25,WNW,285,7.0,12.0,36,0.00,,,0.00,Wunderground v.1.15,2013-01-25 01:45:00,
2013-01-24 20:50:00,17.2,-5.2,30.25,WSW,250,7.0,7.0,36,0.00,,,0.00,Wunderground v.1.15,2013-01-25 01:50:00,
2013-01-24 20:55:00,17.2,-5.2,30.25,WNW,294,8.0,17.0,36,0.00,,,0.00,Wunderground v.1.15,2013-01-25 01:55:00,
2013-01-24 21:00:00,17.2,-5.8,30.25,West,281,9.0,22.0,35,0.00,,,0.00,Wunderground v.1.15,2013-01-25 02:00:00,
2013-01-24 21:05:00,17.1,-5.3,30.26,SE,131,10.0,22.0,36,0.00,,,0.00,Wunderground v.1.15,2013-01-25 02:05:00,
2013-01-24 21:15:00,16.9,-4.9,30.26,SW,232,8.0,13.0,37,0.00,,,0.00,Wunderground v.1.15,2013-01-25 02:15:00,
2013-01-24 21:20:00,16.8,-5.0,30.27,WNW,293,7.0,7.0,37,0.00,,,0.00,Wunderground v.1.15,2013-01-25 02:20:00,
2013-01-24 21:25:00,16.6,-4.6,30.26,NW,309,6.0,11.0,38,0.00,,,0.00,Wunderground v.1.15,2013-01-25 02:25:00,
2013-01-24 21:30:00,16.6,-4.1,30.26,WSW,245,8.0,8.0,39,0.00,,,0.00,Wunderground v.1.15,2013-01-25 02:30:00,
2013-01-24 21:35:00,16.5,-3.7,30.26,WNW,289,8.0,11.0,40,0.00,,,0.00,Wunderground v.1.15,2013-01-25 02:35:00,
2013-01-24 21:40:00,16.4,-3.8,30.26,WNW,297,7.0,7.0,40,0.00,,,0.00,Wunderground v.1.15,2013-01-25 02:40:00,
2013-01-24 21:45:00,16.2,-3.4,30.27,West,281,6.0,13.0,41,0.00,,,0.00,Wunderground v.1.15,2013-01-25 02:45:00,
2013-01-24 21:55:00,16.1,-2.5,30.27,NW,311,9.0,19.0,43,0.00,,,0.00,Wunderground v.1.15,2013-01-25 02:55:00,
2013-01-24 22:00:00,16.1,-1.5,30.27,NW,325,9.0,9.0,45,0.00,,,0.00,Wunderground v.1.15,2013-01-25 03:00:00,
2013-01-24 22:05:00,16.0,-1.2,30.27,NW,324,9.0,14.0,46,0.00,,,0.00,Wunderground v.1.15,2013-01-25 03:05:00,
2013-01-24 22:10:00,16.0,-0.7,30.28,NW,306,9.0,9.0,47,0.00,,,0.00,Wunderground v.1.15,2013-01-25 03:10:00,
2013-01-24 22:15:00,15.9,-0.4,30.27,WNW,285,10.0,10.0,48,0.00,,,0.00,Wunderground v.1.15,2013-01-25 03:15:00,
2013-01-24 22:20:00,15.7,-0.1,30.27,WNW,290,7.0,7.0,49,0.00,,,0.00,Wunderground v.1.15,2013-01-25 03:20:00,
2013-01-24 22:25:00,15.6,0.2,30.28,NNW,337,5.0,7.0,50,0.00,,,0.00,Wunderground v.1.15,2013-01-25 03:25:00,
2013-01-24 22:30:00,15.5,0.6,30.28,NNW,341,6.0,6.0,51,0.00,,,0.00,Wunderground v.1.15,2013-01-25 03:30:00,
2013-01-24 22:35:00,15.5,1.0,30.28,WNW,287,7.0,10.0,52,0.00,,,0.00,Wunderground v.1.15,2013-01-25 03:35:00,
2013-01-24 22:40:00,15.6,1.1,30.28,NW,319,9.0,13.0,52,0.00,,,0.00,Wunderground v.1.15,2013-01-25 03:40:00,
2013-01-24 22:45:00,15.5,1.4,30.28,NNW,338,9.0,13.0,53,0.00,,,0.00,Wunderground v.1.15,2013-01-25 03:45:00,
2013-01-24 22:50:00,15.5,1.4,30.28,WNW,291,8.0,8.0,53,0.00,,,0.00,Wunderground v.1.15,2013-01-25 03:50:00,
2013-01-24 22:55:00,15.4,1.3,30.28,NW,308,7.0,8.0,53,0.00,,,0.00,Wunderground v.1.15,2013-01-25 03:55:00,
2013-01-24 23:00:00,15.4,1.7,30.29,NW,312,7.0,7.0,54,0.00,,,0.00,Wunderground v.1.15,2013-01-25 04:00:00,
2013-01-24 23:05:00,15.4,1.7,30.29,WNW,297,7.0,7.0,54,0.00,,,0.00,Wunderground v.1.15,2013-01-25 04:05:00,
2013-01-24 23:10:00,15.4,2.1,30.29,WNW,296,7.0,7.0,55,0.00,,,0.00,Wunderground v.1.15,2013-01-25 04:10:00,
2013-01-24 23:20:00,15.4,2.1,30.29,WNW,288,8.0,12.0,55,0.00,,,0.00,Wunderground v.1.15,2013-01-25 04:20:00,
2013-01-24 23:26:00,15.4,2.1,30.30,West,262,8.0,12.0,55,0.00,,,0.00,Wunderground v.1.15,2013-01-25 04:26:00,
2013-01-24 23:35:00,15.3,2.4,30.30,WNW,287,7.0,15.0,56,0.00,,,0.00,Wunderground v.1.15,2013-01-25 04:35:00,
2013-01-24 23:45:00,15.1,2.6,30.30,WSW,240,4.0,6.0,57,0.00,,,0.00,Wunderground v.1.15,2013-01-25 04:45:00,
2013-01-24 23:50:00,15.1,2.6,30.30,NW,319,4.0,4.0,57,0.00,,,0.00,Wunderground v.1.15,2013-01-25 04:50:00,
2013-01-24 23:55:00,15.1,3.0,30.30,West,271,6.0,6.0,58,0.00,,,0.00,Wunderground v.1.15,2013-01-25 04:55:00,